createdAt,value
2022-12-16T00:01:23.079Z,123.85
2022-12-16T00:03:55.459Z,126.28
2022-12-16T00:06:29.340Z,121.97
2022-12-16T00:08:59.728Z,119.78
2022-12-16T00:11:27.863Z,131.73
2022-12-16T00:13:57.223Z,125.90
2022-12-16T00:16:27.193Z,125.78
2022-12-16T00:18:54.649Z,129.10
2022-12-16T00:21:31.027Z,139.50
2022-12-16T00:23:59.150Z,122.13
2022-12-16T00:26:26.738Z,123.13
2022-12-16T00:28:58.390Z,136.35
2022-12-16T00:31:27.103Z,110.63
2022-12-16T00:33:58.706Z,120.53
2022-12-16T00:36:26.288Z,118.28
2022-12-16T00:38:53.736Z,108.63
2022-12-16T00:41:23.393Z,103.50
2022-12-16T00:43:50.861Z,110.82
2022-12-16T00:46:21.893Z,92.95
2022-12-16T00:48:49.226Z,94.38
2022-12-16T00:51:16.864Z,77.25
2022-12-16T00:53:43.990Z,72.75
2022-12-16T00:56:14.901Z,85.15
2022-12-16T00:58:42.553Z,77.65
2022-12-16T01:01:12.765Z,74.35
2022-12-16T01:03:42.778Z,79.18
2022-12-16T01:06:13.614Z,81.78
2022-12-16T01:08:48.478Z,82.68
2022-12-16T01:11:20.685Z,78.85
2022-12-16T01:13:52.031Z,78.67
2022-12-16T01:16:22.010Z,88.65
2022-12-16T01:18:49.482Z,88.47
2022-12-16T01:21:17.067Z,75.78
2022-12-16T01:23:44.384Z,85.47
2022-12-16T01:26:20.578Z,81.90
2022-12-16T01:28:50.499Z,72.75
2022-12-16T01:31:19.323Z,84.28
2022-12-16T01:33:49.403Z,78.80
2022-12-16T01:36:17.363Z,74.95
2022-12-16T01:38:49.476Z,80.50
2022-12-16T01:41:18.489Z,85.70
2022-12-16T01:43:48.120Z,81.30
2022-12-16T01:46:15.465Z,84.28
2022-12-16T01:48:48.790Z,90.75
2022-12-16T01:51:30.297Z,87.72
2022-12-16T01:54:12.813Z,97.50
2022-12-16T01:56:47.107Z,86.30
2022-12-16T01:59:18.905Z,80.65
2022-12-16T02:01:48.929Z,88.63
2022-12-16T02:04:18.431Z,95.40
2022-12-16T02:06:50.734Z,96.75
2022-12-16T02:09:18.604Z,96.72
2022-12-16T02:12:13.915Z,85.18
2022-12-16T02:15:04.793Z,81.25
2022-12-16T02:17:44.346Z,79.22
2022-12-16T02:20:27.872Z,80.60
2022-12-16T02:23:38.085Z,83.22
2022-12-16T02:26:05.229Z,78.88
2022-12-16T02:28:59.180Z,75.07
2022-12-16T02:32:05.617Z,78.18
2022-12-16T02:34:49.743Z,76.25
2022-12-16T02:38:01.634Z,78.50
2022-12-16T02:40:47.622Z,74.78
2022-12-16T02:43:35.473Z,79.63
2022-12-16T02:46:05.346Z,77.38
2022-12-16T02:48:32.625Z,73.57
2022-12-16T02:51:00.326Z,76.60
2022-12-16T02:53:28.611Z,74.82
2022-12-16T02:56:05.914Z,77.93
2022-12-16T02:59:07.040Z,77.50
2022-12-16T03:02:00.047Z,66.55
2022-12-16T03:04:52.486Z,69.10
2022-12-16T03:07:24.491Z,75.07
2022-12-16T03:09:53.258Z,73.57
2022-12-16T03:12:22.887Z,79.47
2022-12-16T03:14:53.447Z,78.50
2022-12-16T03:17:24.139Z,73.50
2022-12-16T03:20:05.336Z,84.32
2022-12-16T03:22:36.481Z,74.07
2022-12-16T03:25:05.343Z,78.68
2022-12-16T03:28:07.732Z,89.57
2022-12-16T03:30:45.617Z,82.63
2022-12-16T03:33:23.009Z,85.45
2022-12-16T03:35:59.046Z,84.65
2022-12-16T03:38:32.466Z,96.20
2022-12-16T03:41:03.276Z,82.95
2022-12-16T03:43:31.440Z,84.43
2022-12-16T03:46:06.364Z,82.95
2022-12-16T03:48:37.079Z,80.03
2022-12-16T03:51:04.533Z,89.50
2022-12-16T03:53:32.519Z,86.45
2022-12-16T03:55:59.882Z,85.38
2022-12-16T03:58:29.831Z,91.38
2022-12-16T04:00:56.909Z,94.07
2022-12-16T04:03:24.390Z,94.97
2022-12-16T04:05:53.859Z,98.57
2022-12-16T04:08:23.389Z,96.60
2022-12-16T04:11:12.459Z,97.75
2022-12-16T04:13:58.500Z,97.45
2022-12-16T04:16:47.821Z,99.72
2022-12-16T04:19:49.817Z,90.40
2022-12-16T04:22:54.973Z,99.32
2022-12-16T04:25:28.516Z,101.05
2022-12-16T04:27:58.678Z,114.03
2022-12-16T04:30:30.585Z,94.93
2022-12-16T04:33:21.343Z,93.95
2022-12-16T04:36:11.797Z,97.72
2022-12-16T04:39:04.915Z,99.35
2022-12-16T04:41:52.894Z,91.78
2022-12-16T04:44:38.641Z,99.97
2022-12-16T04:47:27.694Z,105.93
2022-12-16T04:50:15.462Z,96.65
2022-12-16T04:53:04.101Z,97.55
2022-12-16T04:55:49.877Z,100.30
2022-12-16T04:58:35.516Z,102.78
2022-12-16T05:01:21.546Z,100.63
2022-12-16T05:04:07.874Z,102.00
2022-12-16T05:06:53.944Z,93.47
2022-12-16T05:09:42.579Z,96.43
2022-12-16T05:12:30.928Z,92.25
2022-12-16T05:15:16.662Z,95.15
2022-12-16T05:18:04.446Z,97.28
2022-12-16T05:20:52.401Z,103.18
2022-12-16T05:23:42.957Z,137.57
2022-12-16T05:26:28.733Z,110.65
2022-12-16T05:29:19.309Z,110.68
2022-12-16T05:32:04.978Z,108.47
2022-12-16T05:34:53.119Z,123.35
2022-12-16T05:37:38.762Z,107.95
2022-12-16T05:40:24.829Z,104.28
2022-12-16T05:43:16.639Z,108.05
2022-12-16T05:46:02.939Z,102.80
2022-12-16T05:48:48.769Z,116.97
2022-12-16T05:51:37.005Z,101.60
2022-12-16T05:54:23.249Z,103.13
2022-12-16T05:57:08.897Z,108.65
2022-12-16T05:59:54.819Z,103.45
2022-12-16T06:02:40.832Z,96.85
2022-12-16T06:05:27.186Z,102.88
2022-12-16T06:08:13.277Z,98.05
2022-12-16T06:10:59.172Z,98.20
2022-12-16T06:13:47.355Z,100.15
2022-12-16T06:16:33.558Z,97.32
2022-12-16T06:19:21.556Z,99.85
2022-12-16T06:22:07.450Z,97.88
2022-12-16T06:24:53.357Z,92.88
2022-12-16T06:27:41.792Z,96.70
2022-12-16T06:30:30.094Z,99.65
2022-12-16T06:33:16.185Z,94.78
2022-12-16T06:36:04.677Z,99.40
2022-12-16T06:38:50.552Z,87.85
2022-12-16T06:41:39.008Z,91.03
2022-12-16T06:44:27.306Z,94.90
2022-12-16T06:47:15.314Z,94.50
2022-12-16T06:50:01.033Z,92.30
2022-12-16T06:52:46.890Z,96.72
2022-12-16T06:55:33.004Z,95.85
2022-12-16T06:58:25.754Z,89.18
2022-12-16T07:01:14.207Z,103.05
2022-12-16T07:04:00.083Z,94.40
2022-12-16T07:06:47.039Z,93.68
2022-12-16T07:09:35.073Z,88.30
2022-12-16T07:12:23.840Z,98.07
2022-12-16T07:15:09.605Z,98.45
2022-12-16T07:18:02.961Z,107.15
2022-12-16T07:20:49.224Z,93.15
2022-12-16T07:23:35.170Z,97.30
2022-12-16T07:26:25.916Z,98.85
2022-12-16T07:29:13.914Z,91.40
2022-12-16T07:31:59.591Z,100.78
2022-12-16T07:34:50.603Z,92.15
2022-12-16T07:37:38.614Z,99.85
2022-12-16T07:40:47.753Z,106.00
2022-12-16T07:43:37.107Z,94.60
2022-12-16T07:46:25.559Z,106.13
2022-12-16T07:49:16.328Z,106.68
2022-12-16T07:52:04.457Z,108.22
2022-12-16T07:54:50.410Z,102.25
2022-12-16T07:57:39.812Z,107.30
2022-12-16T08:00:26.774Z,104.65
2022-12-16T08:03:13.731Z,102.30
2022-12-16T08:05:59.510Z,106.00
2022-12-16T08:08:50.201Z,100.45
2022-12-16T08:11:40.638Z,102.85
2022-12-16T08:14:29.121Z,91.75
2022-12-16T08:17:19.504Z,103.85
2022-12-16T08:20:05.288Z,98.93
2022-12-16T08:22:53.989Z,103.18
2022-12-16T08:25:43.754Z,96.03
2022-12-16T08:28:32.293Z,101.95
2022-12-16T08:31:20.657Z,99.95
2022-12-16T08:34:08.978Z,100.10
2022-12-16T08:36:57.345Z,104.57
2022-12-16T08:39:51.340Z,106.00
2022-12-16T08:42:53.150Z,97.93
2022-12-16T08:45:41.964Z,103.13
2022-12-16T08:48:32.413Z,97.57
2022-12-16T08:51:23.066Z,99.47
2022-12-16T08:54:12.825Z,96.63
2022-12-16T08:57:00.983Z,108.25
2022-12-16T08:59:49.143Z,107.88
2022-12-16T09:02:35.095Z,100.13
2022-12-16T09:05:21.510Z,104.90
2022-12-16T09:08:07.162Z,107.85
2022-12-16T09:10:58.042Z,105.93
2022-12-16T09:13:45.986Z,110.55
2022-12-16T09:16:37.073Z,114.85
2022-12-16T09:19:25.341Z,110.15
2022-12-16T09:22:11.373Z,102.30
2022-12-16T09:24:56.961Z,101.47
2022-12-16T09:27:43.049Z,107.47
2022-12-16T09:30:29.217Z,109.40
2022-12-16T09:33:19.962Z,103.95
2022-12-16T09:36:05.939Z,105.35
2022-12-16T09:38:52.183Z,108.70
2022-12-16T09:41:46.436Z,103.90
2022-12-16T09:45:01.105Z,102.85
2022-12-16T09:48:15.865Z,90.40
2022-12-16T09:51:02.960Z,101.25
2022-12-16T09:53:55.011Z,105.30
2022-12-16T09:57:11.164Z,114.70
2022-12-16T10:00:00.564Z,119.68
2022-12-16T10:02:48.830Z,112.27
2022-12-16T10:05:48.962Z,102.00
2022-12-16T10:08:51.317Z,130.85
2022-12-16T10:12:05.334Z,103.75
2022-12-16T10:15:03.000Z,99.30
2022-12-16T10:17:49.623Z,104.43
2022-12-16T10:20:51.918Z,106.25
2022-12-16T10:24:01.557Z,115.88
2022-12-16T10:27:17.645Z,113.82
2022-12-16T10:30:05.969Z,116.53
2022-12-16T10:33:05.041Z,104.57
2022-12-16T10:36:04.224Z,121.82
2022-12-16T10:39:03.743Z,104.40
2022-12-16T10:41:55.939Z,105.00
2022-12-16T10:44:48.404Z,119.38
2022-12-16T10:47:34.329Z,104.13
2022-12-16T10:50:20.472Z,106.93
2022-12-16T10:53:35.034Z,113.00
2022-12-16T10:57:02.575Z,107.53
2022-12-16T11:00:00.893Z,111.72
2022-12-16T11:02:48.298Z,110.32
2022-12-16T11:05:48.898Z,108.30
2022-12-16T11:08:51.455Z,118.40
2022-12-16T11:11:44.827Z,109.07
2022-12-16T11:14:39.980Z,119.60
2022-12-16T11:17:42.778Z,120.75
2022-12-16T11:23:35.326Z,102.07
2022-12-16T11:26:36.712Z,107.68
2022-12-16T11:29:30.034Z,115.53
2022-12-16T11:32:43.466Z,115.45
2022-12-16T11:38:27.725Z,116.35
2022-12-16T11:41:18.745Z,116.68
2022-12-16T11:44:09.960Z,105.32
2022-12-16T11:46:56.203Z,114.05
2022-12-16T11:49:50.778Z,106.75
2022-12-16T11:52:40.179Z,115.72
2022-12-16T11:56:04.973Z,105.57
2022-12-16T11:59:06.092Z,98.22
2022-12-16T12:01:59.946Z,97.55
2022-12-16T12:04:46.038Z,120.75
2022-12-16T12:08:33.854Z,121.50
2022-12-16T12:11:34.145Z,105.05
2022-12-16T12:14:38.901Z,108.07
2022-12-16T12:17:27.731Z,105.90
2022-12-16T12:20:40.198Z,102.95
2022-12-16T12:23:37.011Z,107.53
2022-12-16T12:26:38.026Z,104.00
2022-12-16T12:29:49.559Z,102.60
2022-12-16T12:33:02.858Z,102.07
2022-12-16T12:36:13.042Z,110.75
2022-12-16T12:39:19.992Z,101.82
2022-12-16T12:42:23.992Z,107.25
2022-12-16T12:45:36.889Z,101.75
2022-12-16T12:48:41.256Z,105.68
2022-12-16T12:52:07.723Z,110.20
2022-12-16T12:55:00.087Z,108.13
2022-12-16T12:57:50.652Z,102.97
2022-12-16T13:00:40.325Z,107.10
2022-12-16T13:03:33.924Z,128.45
2022-12-16T13:06:21.070Z,111.07
2022-12-16T13:09:09.587Z,106.72
2022-12-16T13:12:25.523Z,105.70
2022-12-16T13:15:48.423Z,113.78
2022-12-16T13:18:47.813Z,114.57
2022-12-16T13:21:56.363Z,113.18
2022-12-16T13:24:55.576Z,119.22
2022-12-16T13:27:42.052Z,116.22
2022-12-16T13:30:30.805Z,117.63
2022-12-16T13:33:20.284Z,122.15
2022-12-16T13:36:18.068Z,111.25
2022-12-16T13:39:09.528Z,113.68
2022-12-16T13:41:55.329Z,109.43
2022-12-16T13:45:10.937Z,108.03
2022-12-16T13:47:59.943Z,121.47
2022-12-16T13:51:03.134Z,129.27
2022-12-16T13:54:08.420Z,118.07
2022-12-16T13:57:04.853Z,128.00
2022-12-16T13:59:52.013Z,127.13
2022-12-16T14:02:51.919Z,135.93
2022-12-16T14:05:41.280Z,137.13
2022-12-16T14:08:36.316Z,131.60
2022-12-16T14:11:31.736Z,133.70
2022-12-16T14:14:35.115Z,144.63
2022-12-16T14:17:25.484Z,133.73
2022-12-16T14:20:39.943Z,140.57
2022-12-16T14:23:56.419Z,137.90
2022-12-16T14:26:45.416Z,140.75
2022-12-16T14:29:45.075Z,142.85
2022-12-16T14:32:48.746Z,132.93
2022-12-16T14:35:46.379Z,132.32
2022-12-16T14:38:44.809Z,139.60
2022-12-16T14:41:39.124Z,130.20
2022-12-16T14:44:36.430Z,133.63
2022-12-16T14:47:27.698Z,136.43
2022-12-16T14:50:16.930Z,140.98
2022-12-16T14:53:24.820Z,140.10
2022-12-16T14:56:35.475Z,141.48
2022-12-16T14:59:38.335Z,132.52
2022-12-16T15:02:47.060Z,140.75
2022-12-16T15:05:41.242Z,128.90
2022-12-16T15:08:31.489Z,133.88
2022-12-16T15:11:22.216Z,130.18
2022-12-16T15:14:17.937Z,137.98
2022-12-16T15:17:08.815Z,134.48
2022-12-16T15:20:10.202Z,133.70
2022-12-16T15:26:14.579Z,134.48
2022-12-16T15:29:06.373Z,132.38
2022-12-16T15:32:03.107Z,133.07
2022-12-16T15:35:08.639Z,141.30
2022-12-16T15:38:07.614Z,139.07
2022-12-16T15:41:05.600Z,138.52
2022-12-16T15:43:58.987Z,130.07
2022-12-16T15:46:49.784Z,127.45
2022-12-16T15:50:02.084Z,141.00
2022-12-16T15:52:52.677Z,145.40
2022-12-16T15:55:57.144Z,138.63
2022-12-16T15:58:55.690Z,131.68
2022-12-16T16:01:46.885Z,131.95
2022-12-16T16:04:54.240Z,143.10
2022-12-16T16:07:51.017Z,146.55
2022-12-16T16:10:45.541Z,138.55
2022-12-16T16:13:38.600Z,137.15
2022-12-16T16:16:24.975Z,132.95
2022-12-16T16:19:16.736Z,126.00
2022-12-16T16:22:03.774Z,142.95
2022-12-16T16:24:57.474Z,147.18
2022-12-16T16:27:51.143Z,143.57
2022-12-16T16:30:39.997Z,138.30
2022-12-16T16:33:25.854Z,123.43
2022-12-16T16:36:14.890Z,138.68
2022-12-16T16:39:01.444Z,137.90
2022-12-16T16:41:50.006Z,140.48
2022-12-16T16:44:37.148Z,141.65
2022-12-16T16:47:35.585Z,128.15
2022-12-16T16:50:29.069Z,143.60
2022-12-16T16:53:38.508Z,135.43
2022-12-16T16:56:24.799Z,129.85
2022-12-16T16:59:10.654Z,129.10
2022-12-16T17:01:56.944Z,143.52
2022-12-16T17:04:42.919Z,143.63
2022-12-16T17:07:30.813Z,141.73
2022-12-16T17:10:19.274Z,145.38
2022-12-16T17:13:05.098Z,141.88
2022-12-16T17:15:54.613Z,136.15
2022-12-16T17:18:46.622Z,155.63
2022-12-16T17:21:38.776Z,149.07
2022-12-16T17:24:26.774Z,135.57
2022-12-16T17:27:17.851Z,139.85
2022-12-16T17:30:03.841Z,155.38
2022-12-16T17:32:54.342Z,135.38
2022-12-16T17:35:42.524Z,138.32
2022-12-16T17:38:31.113Z,139.40
2022-12-16T17:41:24.109Z,144.38
2022-12-16T17:44:14.417Z,148.30
2022-12-16T17:47:00.030Z,147.00
2022-12-16T17:49:47.886Z,141.50
2022-12-16T17:52:36.359Z,136.77
2022-12-16T17:55:25.401Z,133.45
2022-12-16T17:58:20.642Z,143.55
2022-12-16T18:01:06.946Z,143.68
2022-12-16T18:03:53.091Z,137.35
2022-12-16T18:06:39.864Z,134.80
2022-12-16T18:09:25.927Z,140.93
2022-12-16T18:12:12.131Z,148.32
2022-12-16T18:14:57.857Z,146.00
2022-12-16T18:17:43.495Z,143.80
2022-12-16T18:20:31.812Z,130.77
2022-12-16T18:23:20.341Z,139.07
2022-12-16T18:26:22.130Z,146.90
2022-12-16T18:29:10.899Z,126.00
2022-12-16T18:31:59.010Z,129.35
2022-12-16T18:34:47.451Z,117.18
2022-12-16T18:37:33.322Z,132.63
2022-12-16T18:40:19.522Z,131.02
2022-12-16T18:43:05.513Z,131.70
2022-12-16T18:45:54.047Z,141.80
2022-12-16T18:48:42.525Z,146.00
2022-12-16T18:51:28.236Z,134.50
2022-12-16T18:54:14.127Z,134.38
2022-12-16T18:57:00.024Z,142.07
2022-12-16T18:59:48.293Z,130.50
2022-12-16T19:02:36.919Z,127.55
2022-12-16T19:05:25.555Z,133.40
2022-12-16T19:08:27.489Z,124.25
2022-12-16T19:11:19.421Z,115.57
2022-12-16T19:14:08.314Z,124.70
2022-12-16T19:16:54.059Z,122.72
2022-12-16T19:19:40.165Z,121.18
2022-12-16T19:22:29.378Z,127.43
2022-12-16T19:25:15.474Z,120.72
2022-12-16T19:28:04.210Z,124.00
2022-12-16T19:30:59.139Z,124.97
2022-12-16T19:33:45.259Z,130.27
2022-12-16T19:36:46.620Z,121.60
2022-12-16T19:39:34.216Z,136.32
2022-12-16T19:42:24.867Z,124.43
2022-12-16T19:45:10.887Z,134.27
2022-12-16T19:47:56.952Z,124.38
2022-12-16T19:50:45.314Z,126.90
2022-12-16T19:53:36.115Z,117.80
2022-12-16T19:56:27.413Z,127.50
2022-12-16T19:59:13.307Z,129.80
2022-12-16T20:02:00.018Z,126.45
2022-12-16T20:04:46.693Z,114.00
2022-12-16T20:07:35.329Z,130.30
2022-12-16T20:10:25.200Z,125.38
2022-12-16T20:13:16.938Z,126.10
2022-12-16T20:16:11.278Z,119.60
2022-12-16T20:18:57.223Z,131.00
2022-12-16T20:21:48.932Z,130.25
2022-12-16T20:24:40.175Z,121.80
2022-12-16T20:27:26.689Z,123.03
2022-12-16T20:30:18.166Z,114.03
2022-12-16T20:33:19.565Z,127.80
2022-12-16T20:36:16.353Z,123.57
2022-12-16T20:39:02.295Z,125.80
2022-12-16T20:41:48.516Z,135.30
2022-12-16T20:44:34.319Z,120.30
2022-12-16T20:47:23.382Z,125.90
2022-12-16T20:50:09.398Z,131.18
2022-12-16T20:52:55.098Z,136.15
2022-12-16T20:55:42.689Z,134.15
2022-12-16T20:58:34.908Z,132.32
2022-12-16T21:01:21.074Z,133.73
2022-12-16T21:04:07.010Z,137.93
2022-12-16T21:06:52.880Z,131.25
2022-12-16T21:09:44.624Z,131.18
2022-12-16T21:12:38.120Z,133.82
2022-12-16T21:15:24.511Z,131.00
2022-12-16T21:18:10.313Z,126.70
2022-12-16T21:20:58.406Z,135.43
2022-12-16T21:23:46.717Z,142.50
2022-12-16T21:26:33.282Z,133.88
2022-12-16T21:29:19.365Z,145.25
2022-12-16T21:32:05.869Z,134.40
2022-12-16T21:34:52.929Z,143.00
2022-12-16T21:37:45.012Z,139.07
2022-12-16T21:40:32.141Z,140.63
2022-12-16T21:43:17.729Z,148.38
2022-12-16T21:46:10.883Z,137.07
2022-12-16T21:48:59.131Z,139.57
2022-12-16T21:51:46.127Z,141.40
2022-12-16T21:54:35.296Z,134.10
2022-12-16T21:57:27.780Z,137.50
2022-12-16T22:00:23.846Z,140.02
2022-12-16T22:03:14.779Z,126.38
2022-12-16T22:06:02.876Z,122.80
2022-12-16T22:09:21.585Z,143.27
2022-12-16T22:12:09.647Z,138.45
2022-12-16T22:14:59.328Z,128.77
2022-12-16T22:17:58.619Z,131.20
2022-12-16T22:20:51.814Z,129.70
2022-12-16T22:23:39.679Z,130.60
2022-12-16T22:26:30.279Z,123.32
2022-12-16T22:29:17.327Z,128.27
2022-12-16T22:32:04.923Z,129.55
2022-12-16T22:34:55.028Z,142.45
2022-12-16T22:37:50.067Z,127.38
2022-12-16T22:40:41.222Z,134.63
2022-12-16T22:43:29.253Z,126.18
2022-12-16T22:46:22.215Z,129.27
2022-12-16T22:49:10.115Z,134.50
2022-12-16T22:51:57.562Z,121.88
2022-12-16T22:54:47.356Z,139.38
2022-12-16T22:57:35.019Z,118.10
2022-12-16T23:00:24.476Z,142.98
2022-12-16T23:03:11.405Z,135.45
2022-12-16T23:05:58.518Z,135.63
2022-12-16T23:08:48.693Z,133.25
2022-12-16T23:11:39.231Z,149.77
2022-12-16T23:14:28.611Z,136.57
2022-12-16T23:17:22.349Z,128.67
2022-12-16T23:20:10.107Z,133.05
2022-12-16T23:23:00.251Z,142.90
2022-12-16T23:25:48.794Z,124.53
2022-12-16T23:28:41.034Z,132.20
2022-12-16T23:31:28.994Z,136.93
2022-12-16T23:34:16.780Z,135.05
2022-12-16T23:37:06.590Z,130.48
2022-12-16T23:39:56.350Z,129.98
2022-12-16T23:42:44.121Z,134.77
2022-12-16T23:45:30.906Z,134.80
2022-12-16T23:48:24.736Z,149.45
2022-12-16T23:51:11.148Z,137.82
2022-12-16T23:53:57.464Z,133.02
2022-12-16T23:56:46.766Z,128.57
2022-12-16T23:59:35.726Z,126.43
